createdAt,value
2019-04-29T00:00:40.292Z,97.5952
2019-04-29T00:01:43.283Z,97.4319
2019-04-29T00:02:45.353Z,97.4273
2019-04-29T00:03:48.303Z,97.2580
2019-04-29T00:04:51.312Z,97.1283
2019-04-29T00:05:54.304Z,97.6104
2019-04-29T00:06:57.281Z,97.5235
2019-04-29T00:08:00.353Z,97.0611
2019-04-29T00:09:03.296Z,97.2854
2019-04-29T00:10:06.293Z,97.2885
2019-04-29T00:11:09.283Z,97.1527
2019-04-29T00:12:12.327Z,97.2793
2019-04-29T00:13:15.277Z,97.5006
2019-04-29T00:14:18.280Z,97.3358
2019-04-29T00:15:21.304Z,97.5647
2019-04-29T00:16:24.317Z,97.4548
2019-04-29T00:17:27.273Z,97.5265
2019-04-29T00:18:30.308Z,97.4395
2019-04-29T00:19:36.100Z,97.4640
2019-04-29T00:20:39.266Z,97.7661
2019-04-29T00:21:41.299Z,97.5219
2019-04-29T00:22:44.277Z,97.3343
2019-04-29T00:23:47.294Z,97.3266
2019-04-29T00:24:50.311Z,97.5952
2019-04-29T00:25:53.323Z,97.4960
2019-04-29T00:26:56.293Z,97.4624
2019-04-29T00:27:59.317Z,97.4411
2019-04-29T00:29:02.339Z,97.8057
2019-04-29T00:30:05.323Z,97.5494
2019-04-29T00:31:08.322Z,97.6104
2019-04-29T00:32:11.278Z,97.6272
2019-04-29T00:33:14.291Z,97.4868
2019-04-29T00:34:17.354Z,97.1786
2019-04-29T00:35:20.313Z,97.2717
2019-04-29T00:36:23.277Z,97.3495
2019-04-29T00:37:26.272Z,97.1649
2019-04-29T00:38:29.330Z,97.2656
2019-04-29T00:39:32.335Z,97.1695
2019-04-29T00:40:35.311Z,97.3755
2019-04-29T00:41:38.278Z,97.2717
2019-04-29T00:42:41.278Z,96.8078
2019-04-29T00:43:44.359Z,97.3114
2019-04-29T00:44:47.308Z,97.5372
2019-04-29T00:45:50.300Z,97.5051
2019-04-29T00:46:53.281Z,97.2610
2019-04-29T00:47:56.338Z,97.1511
2019-04-29T00:48:59.283Z,97.2244
2019-04-29T00:50:02.347Z,97.2168
2019-04-29T00:51:05.347Z,96.9604
2019-04-29T00:52:08.309Z,97.0062
2019-04-29T00:53:11.289Z,97.0687
2019-04-29T00:54:14.303Z,97.1054
2019-04-29T00:55:17.345Z,97.2107
2019-04-29T00:56:20.270Z,97.4762
2019-04-29T00:57:23.302Z,97.1557
2019-04-29T00:58:26.263Z,97.2702
2019-04-29T00:59:29.303Z,97.5326
2019-04-29T01:00:32.318Z,97.0382
2019-04-29T01:01:35.319Z,97.0474
2019-04-29T01:02:38.283Z,96.9787
2019-04-29T01:03:41.405Z,96.5759
2019-04-29T01:04:44.309Z,97.0230
2019-04-29T01:05:47.338Z,96.9268
2019-04-29T01:06:50.276Z,97.2198
2019-04-29T01:07:53.325Z,97.3587
2019-04-29T01:08:56.299Z,97.6516
2019-04-29T01:09:58.288Z,98.0301
2019-04-29T01:11:01.361Z,97.6654
2019-04-29T01:12:04.327Z,97.6272
2019-04-29T01:13:07.317Z,97.6516
2019-04-29T01:14:10.309Z,97.8607
2019-04-29T01:15:13.311Z,97.8943
2019-04-29T01:16:16.345Z,97.9522
2019-04-29T01:17:19.284Z,97.9126
2019-04-29T01:18:22.305Z,97.8576
2019-04-29T01:19:25.266Z,97.6837
2019-04-29T01:20:28.278Z,97.6242
2019-04-29T01:21:30.333Z,97.5555
2019-04-29T01:22:33.297Z,97.2488
2019-04-29T01:23:36.301Z,97.5814
2019-04-29T01:24:39.333Z,97.7279
2019-04-29T01:25:42.269Z,97.3800
2019-04-29T01:26:45.304Z,97.2854
2019-04-29T01:27:48.312Z,97.1878
2019-04-29T01:28:51.288Z,97.1649
2019-04-29T01:29:54.295Z,97.4945
2019-04-29T01:30:57.295Z,97.3571
2019-04-29T01:32:00.333Z,97.2152
2019-04-29T01:33:03.310Z,97.0275
2019-04-29T01:34:06.253Z,97.1420
2019-04-29T01:35:09.283Z,97.0199
2019-04-29T01:36:12.338Z,97.2244
2019-04-29T01:37:15.317Z,97.4441
2019-04-29T01:38:18.283Z,97.2747
2019-04-29T01:39:21.298Z,96.6766
2019-04-29T01:40:24.275Z,96.9284
2019-04-29T01:41:27.287Z,97.5143
2019-04-29T01:42:30.306Z,97.1572
2019-04-29T01:43:33.318Z,97.1511
2019-04-29T01:44:36.273Z,97.4578
2019-04-29T01:45:39.305Z,97.6318
2019-04-29T01:46:42.317Z,97.5448
2019-04-29T01:47:45.340Z,97.6455
2019-04-29T01:48:48.305Z,97.5631
2019-04-29T01:49:51.315Z,98.0301
2019-04-29T01:50:54.290Z,97.6150
2019-04-29T01:51:57.302Z,97.5219
2019-04-29T01:53:00.326Z,97.1740
2019-04-29T01:54:03.287Z,96.8643
2019-04-29T01:55:08.327Z,97.0382
2019-04-29T01:56:11.280Z,96.5576
2019-04-29T01:57:13.292Z,96.7620
2019-04-29T01:58:16.347Z,96.7498
2019-04-29T01:59:19.288Z,96.9055
2019-04-29T02:00:22.327Z,96.8643
2019-04-29T02:01:25.314Z,97.0687
2019-04-29T02:02:28.290Z,97.3709
2019-04-29T02:03:31.310Z,97.2381
2019-04-29T02:04:34.345Z,97.4090
2019-04-29T02:05:37.287Z,97.0199
2019-04-29T02:06:40.302Z,96.5652
2019-04-29T02:07:43.290Z,96.8994
2019-04-29T02:08:46.337Z,96.7025
2019-04-29T02:09:49.285Z,97.0428
2019-04-29T02:10:52.282Z,97.1481
2019-04-29T02:11:55.283Z,97.2473
2019-04-29T02:12:58.279Z,97.5647
2019-04-29T02:14:00.343Z,97.8759
2019-04-29T02:15:03.296Z,97.7691
2019-04-29T02:16:06.274Z,98.1033
2019-04-29T02:17:09.298Z,98.2864
2019-04-29T02:18:12.261Z,98.2971
2019-04-29T02:19:15.346Z,98.4421
2019-04-29T02:20:18.270Z,98.3932
2019-04-29T02:21:21.329Z,98.4161
2019-04-29T02:22:24.280Z,98.2544
2019-04-29T02:23:27.325Z,97.9477
2019-04-29T02:24:30.312Z,97.9294
2019-04-29T02:25:33.289Z,97.8286
2019-04-29T02:26:36.278Z,97.5631
2019-04-29T02:27:40.325Z,97.8210
2019-04-29T02:28:43.300Z,97.7142
2019-04-29T02:29:46.302Z,97.6135
2019-04-29T02:30:49.333Z,97.9217
2019-04-29T02:31:52.308Z,97.7157
2019-04-29T02:32:55.303Z,97.7752
2019-04-29T02:33:58.390Z,97.7203
2019-04-29T02:35:01.329Z,98.3459
2019-04-29T02:36:04.320Z,97.8378
2019-04-29T02:37:07.276Z,98.2971
2019-04-29T02:38:10.299Z,98.0133
2019-04-29T02:39:13.296Z,98.3383
2019-04-29T02:40:15.343Z,98.5153
2019-04-29T02:41:18.298Z,98.4619
2019-04-29T02:42:21.286Z,98.4375
2019-04-29T02:43:24.267Z,98.5290
2019-04-29T02:44:27.284Z,98.7213
2019-04-29T02:45:30.347Z,98.8495
2019-04-29T02:46:33.286Z,98.7945
2019-04-29T02:47:36.311Z,98.8876
2019-04-29T02:48:41.283Z,99.0112
2019-04-29T02:49:44.316Z,98.9105
2019-04-29T02:50:47.301Z,98.8220
2019-04-29T02:51:50.331Z,98.8556
2019-04-29T02:52:53.268Z,99.0372
2019-04-29T02:53:56.324Z,99.1104
2019-04-29T02:54:59.264Z,99.1699
2019-04-29T02:56:02.329Z,99.1760
2019-04-29T02:57:05.359Z,99.0646
2019-04-29T02:58:12.270Z,99.0661
2019-04-29T02:59:15.307Z,99.0326
2019-04-29T03:00:17.334Z,99.0875
2019-04-29T03:01:20.336Z,99.3255
2019-04-29T03:02:23.268Z,99.3988
2019-04-29T03:03:26.307Z,99.3347
2019-04-29T03:04:29.275Z,99.4919
2019-04-29T03:05:31.290Z,99.3591
2019-04-29T03:06:34.340Z,99.3683
2019-04-29T03:07:37.281Z,99.3027
2019-04-29T03:08:40.317Z,99.1608
2019-04-29T03:09:43.307Z,99.2950
2019-04-29T03:10:46.303Z,99.3118
2019-04-29T03:11:48.327Z,99.1836
2019-04-29T03:12:51.281Z,99.1241
2019-04-29T03:13:54.280Z,99.2798
2019-04-29T03:14:57.280Z,99.2676
2019-04-29T03:16:00.282Z,99.3912
2019-04-29T03:17:03.283Z,99.3500
2019-04-29T03:18:06.290Z,99.4736
2019-04-29T03:19:09.297Z,99.4400
2019-04-29T03:20:13.368Z,99.4598
2019-04-29T03:21:16.298Z,99.4995
2019-04-29T03:22:19.335Z,99.4858
2019-04-29T03:23:22.294Z,99.4186
2019-04-29T03:24:25.271Z,99.5148
2019-04-29T03:25:28.277Z,99.5697
2019-04-29T03:26:31.277Z,99.4781
2019-04-29T03:27:34.323Z,99.3393
2019-04-29T03:28:37.281Z,99.1943
2019-04-29T03:29:40.308Z,98.8724
2019-04-29T03:30:43.309Z,98.9242
2019-04-29T03:31:46.294Z,98.8556
2019-04-29T03:32:49.346Z,99.0295
2019-04-29T03:33:52.301Z,99.1073
2019-04-29T03:34:55.300Z,98.9837
2019-04-29T03:35:58.305Z,98.9975
2019-04-29T03:37:00.351Z,99.0280
2019-04-29T03:38:03.298Z,99.0326
2019-04-29T03:39:06.311Z,99.0112
2019-04-29T03:40:09.338Z,98.5992
2019-04-29T03:41:12.323Z,98.4253
2019-04-29T03:42:15.288Z,98.5016
2019-04-29T03:43:17.416Z,98.2589
2019-04-29T03:44:20.286Z,98.4298
2019-04-29T03:45:23.274Z,98.8449
2019-04-29T03:46:26.317Z,98.8327
2019-04-29T03:47:29.284Z,98.9975
2019-04-29T03:48:32.307Z,98.6206
2019-04-29T03:49:35.304Z,98.7030
2019-04-29T03:50:38.294Z,98.8281
2019-04-29T03:51:41.334Z,98.8098
2019-04-29T03:52:44.290Z,99.0188
2019-04-29T03:53:47.309Z,99.2477
2019-04-29T03:54:50.303Z,99.4171
2019-04-29T03:55:53.319Z,99.4537
2019-04-29T03:56:56.265Z,99.5285
2019-04-29T03:57:59.310Z,99.3637
2019-04-29T03:59:02.316Z,99.0753
2019-04-29T04:00:06.345Z,98.9654
2019-04-29T04:01:09.288Z,99.1882
2019-04-29T04:02:12.316Z,99.2996
2019-04-29T04:03:15.321Z,99.3988
2019-04-29T04:04:18.306Z,99.4598
2019-04-29T04:05:21.306Z,99.3576
2019-04-29T04:06:24.288Z,99.2172
2019-04-29T04:07:27.344Z,99.1852
2019-04-29T04:08:30.310Z,99.3225
2019-04-29T04:09:33.331Z,99.2721
2019-04-29T04:10:36.289Z,99.1394
2019-04-29T04:11:39.330Z,99.2203
2019-04-29T04:12:42.289Z,99.0799
2019-04-29T04:13:45.301Z,98.9471
2019-04-29T04:14:48.330Z,98.7411
2019-04-29T04:15:51.285Z,98.8876
2019-04-29T04:16:53.284Z,98.8495
2019-04-29T04:17:56.314Z,98.7823
2019-04-29T04:18:59.291Z,98.6984
2019-04-29T04:20:02.350Z,98.3551
2019-04-29T04:21:05.299Z,98.4207
2019-04-29T04:22:08.311Z,98.2513
2019-04-29T04:23:11.271Z,98.1033
2019-04-29T04:24:14.304Z,98.2223
2019-04-29T04:25:17.348Z,98.2544
2019-04-29T04:26:20.318Z,97.9263
2019-04-29T04:27:23.276Z,98.1674
2019-04-29T04:28:26.315Z,98.0316
2019-04-29T04:29:29.324Z,97.8805
2019-04-29T04:30:32.334Z,97.7935
2019-04-29T04:31:35.275Z,97.7554
2019-04-29T04:32:38.273Z,97.6822
2019-04-29T04:33:41.323Z,97.5235
2019-04-29T04:34:44.351Z,97.1374
2019-04-29T04:35:47.303Z,97.1420
2019-04-29T04:36:50.323Z,97.1695
2019-04-29T04:37:52.307Z,97.2473
2019-04-29T04:38:55.281Z,97.5357
2019-04-29T04:39:57.309Z,97.6501
2019-04-29T04:41:00.386Z,97.4212
2019-04-29T04:42:03.287Z,97.4136
2019-04-29T04:43:06.352Z,97.0413
2019-04-29T04:44:09.272Z,96.9238
2019-04-29T04:45:11.309Z,97.0962
2019-04-29T04:46:14.317Z,97.1328
2019-04-29T04:47:17.303Z,97.3495
2019-04-29T04:48:20.272Z,97.3251
2019-04-29T04:49:23.320Z,97.4441
2019-04-29T04:50:26.369Z,97.4960
2019-04-29T04:51:29.303Z,97.1649
2019-04-29T04:52:32.279Z,97.0794
2019-04-29T04:53:35.304Z,96.8689
2019-04-29T04:54:38.337Z,96.9039
2019-04-29T04:55:41.351Z,97.0291
2019-04-29T04:56:44.323Z,97.0428
2019-04-29T04:57:47.287Z,97.2473
2019-04-29T04:58:50.284Z,97.3632
2019-04-29T04:59:53.316Z,97.0749
2019-04-29T05:00:56.285Z,97.3999
2019-04-29T05:01:59.344Z,97.1161
2019-04-29T05:03:02.283Z,96.7727
2019-04-29T05:04:05.296Z,96.3134
2019-04-29T05:05:08.299Z,96.5301
2019-04-29T05:06:11.342Z,96.3561
2019-04-29T05:07:14.302Z,96.4385
2019-04-29T05:08:17.277Z,96.1074
2019-04-29T05:09:20.326Z,96.1624
2019-04-29T05:10:23.272Z,95.8114
2019-04-29T05:11:26.355Z,95.8465
2019-04-29T05:12:29.293Z,95.8389
2019-04-29T05:13:32.304Z,95.6237
2019-04-29T05:14:35.303Z,95.3674
2019-04-29T05:15:38.300Z,95.2712
2019-04-29T05:16:41.297Z,95.1843
2019-04-29T05:17:44.280Z,95.0271
2019-04-29T05:18:47.310Z,94.9737
2019-04-29T05:19:50.262Z,95.0042
2019-04-29T05:20:53.316Z,94.8180
2019-04-29T05:21:55.366Z,95.2606
2019-04-29T05:22:58.313Z,95.0500
2019-04-29T05:24:01.294Z,94.7799
2019-04-29T05:25:04.315Z,94.8074
2019-04-29T05:26:07.298Z,94.7112
2019-04-29T05:27:10.320Z,94.7112
2019-04-29T05:28:13.320Z,94.7845
2019-04-29T05:29:16.286Z,94.3816
2019-04-29T05:30:18.343Z,94.5754
2019-04-29T05:31:21.316Z,95.1064
2019-04-29T05:32:24.375Z,94.5464
2019-04-29T05:33:27.302Z,94.7021
2019-04-29T05:34:30.284Z,94.6670
2019-04-29T05:35:33.310Z,94.9126
2019-04-29T05:36:38.187Z,94.3099
2019-04-29T05:37:42.343Z,94.1680
2019-04-29T05:38:45.285Z,94.5251
2019-04-29T05:39:48.296Z,94.6609
2019-04-29T05:40:51.287Z,94.4915
2019-04-29T05:41:54.311Z,94.6120
2019-04-29T05:42:57.297Z,94.5068
2019-04-29T05:44:00.284Z,94.4915
2019-04-29T05:45:03.284Z,94.5373
2019-04-29T05:46:07.554Z,94.0719
2019-04-29T05:47:11.302Z,93.6263
2019-04-29T05:48:14.328Z,93.2387
2019-04-29T05:49:17.341Z,92.7657
2019-04-29T05:50:20.307Z,93.1151
2019-04-29T05:51:27.178Z,92.7932
2019-04-29T05:52:34.654Z,92.2271
2019-04-29T05:53:39.350Z,92.7703
2019-04-29T05:54:42.278Z,92.9122
2019-04-29T05:55:45.335Z,92.5338
2019-04-29T05:56:50.279Z,91.8181
2019-04-29T05:57:55.883Z,91.5999
2019-04-29T05:59:01.351Z,91.4992
2019-04-29T06:00:04.304Z,91.9753
2019-04-29T06:01:07.367Z,92.3506
2019-04-29T06:02:10.285Z,92.0851
2019-04-29T06:03:13.313Z,92.2682
2019-04-29T06:04:18.194Z,92.2301
2019-04-29T06:05:21.340Z,91.5129
2019-04-29T06:06:24.299Z,91.4336
2019-04-29T06:07:27.321Z,90.8797
2019-04-29T06:08:34.323Z,91.1910
2019-04-29T06:09:38.331Z,90.8568
2019-04-29T06:10:42.102Z,91.6274
2019-04-29T06:11:45.302Z,91.8425
2019-04-29T06:12:48.285Z,91.3054
2019-04-29T06:13:51.281Z,91.6991
2019-04-29T06:14:54.348Z,91.1513
2019-04-29T06:15:57.296Z,89.7551
2019-04-29T06:17:02.837Z,90.2861
2019-04-29T06:18:08.273Z,90.1060
2019-04-29T06:19:11.301Z,89.6437
2019-04-29T06:20:17.954Z,89.8604
2019-04-29T06:21:22.315Z,89.9107
2019-04-29T06:22:25.277Z,89.9428
2019-04-29T06:23:28.307Z,90.5959
2019-04-29T06:24:31.319Z,90.3593
2019-04-29T06:25:34.330Z,88.8212
2019-04-29T06:26:37.331Z,90.0389
2019-04-29T06:27:40.294Z,89.7673
2019-04-29T06:28:42.346Z,90.3395
2019-04-29T06:29:45.325Z,90.8339
2019-04-29T06:30:50.258Z,91.2367
2019-04-29T06:31:55.307Z,91.1513
2019-04-29T06:32:58.378Z,91.0216
2019-04-29T06:34:05.238Z,91.0231
2019-04-29T06:35:10.693Z,90.4646
2019-04-29T06:36:17.316Z,90.4417
2019-04-29T06:37:20.309Z,90.3365
2019-04-29T06:38:23.314Z,90.3319
2019-04-29T06:39:26.293Z,90.5562
2019-04-29T06:40:30.728Z,90.3960
2019-04-29T06:41:40.676Z,89.7581
2019-04-29T06:42:45.326Z,89.4072
2019-04-29T06:43:48.284Z,89.3690
2019-04-29T06:44:51.312Z,89.8466
2019-04-29T06:45:54.346Z,89.5399
2019-04-29T06:46:57.311Z,89.3141
2019-04-29T06:47:59.375Z,87.6524
2019-04-29T06:49:10.024Z,88.1743
2019-04-29T06:50:11.325Z,88.5725
2019-04-29T06:51:14.269Z,88.2292
2019-04-29T06:52:17.290Z,88.1529
2019-04-29T06:53:21.375Z,87.9408
2019-04-29T06:54:26.324Z,86.6316
2019-04-29T06:55:29.331Z,86.5171
2019-04-29T06:56:32.301Z,87.2312
2019-04-29T06:57:35.297Z,86.8437
2019-04-29T06:58:38.547Z,86.6743
2019-04-29T06:59:42.900Z,86.8208
2019-04-29T07:00:51.068Z,86.0838
2019-04-29T07:01:54.317Z,86.6773
2019-04-29T07:02:57.310Z,87.2740
2019-04-29T07:04:02.355Z,87.2221
2019-04-29T07:05:05.291Z,85.2323
2019-04-29T07:06:08.356Z,85.4368
2019-04-29T07:07:11.301Z,85.8274
2019-04-29T07:08:14.269Z,86.2715
2019-04-29T07:09:17.294Z,85.2079
2019-04-29T07:10:21.617Z,85.5528
2019-04-29T07:11:27.349Z,85.9495
2019-04-29T07:12:30.313Z,86.5446
2019-04-29T07:13:33.307Z,84.8341
2019-04-29T07:14:38.607Z,85.2048
2019-04-29T07:15:43.433Z,85.5512
2019-04-29T07:16:50.340Z,84.9302
2019-04-29T07:17:53.320Z,86.1433
2019-04-29T07:18:56.274Z,86.3676
2019-04-29T07:20:02.038Z,85.7725
2019-04-29T07:21:07.437Z,86.0365
2019-04-29T07:22:14.340Z,86.1646
2019-04-29T07:23:17.380Z,86.1387
2019-04-29T07:24:20.563Z,84.4999
2019-04-29T07:25:24.753Z,85.8549
2019-04-29T07:26:31.265Z,84.5670
2019-04-29T07:27:40.438Z,85.5146
2019-04-29T07:28:42.304Z,85.6886
2019-04-29T07:29:45.305Z,84.0467
2019-04-29T07:31:01.224Z,83.7812
2019-04-29T07:31:56.301Z,84.3488
2019-04-29T07:33:00.413Z,83.9124
2019-04-29T07:34:03.298Z,84.3473
2019-04-29T07:35:09.928Z,83.9994
2019-04-29T07:36:14.310Z,83.6973
2019-04-29T07:37:17.352Z,83.6789
2019-04-29T07:38:20.337Z,84.4678
2019-04-29T07:39:22.353Z,83.5554
2019-04-29T07:40:25.323Z,83.3234
2019-04-29T07:41:30.361Z,82.6825
2019-04-29T07:42:33.392Z,82.8412
2019-04-29T07:43:38.465Z,84.1703
2019-04-29T07:44:44.529Z,84.0269
2019-04-29T07:45:47.312Z,84.7974
2019-04-29T07:46:57.046Z,84.0330
2019-04-29T07:48:01.702Z,84.9577
2019-04-29T07:49:06.350Z,85.0538
2019-04-29T07:50:09.382Z,86.1051
2019-04-29T07:51:12.332Z,84.4480
2019-04-29T07:52:16.162Z,85.2903
2019-04-29T07:53:20.885Z,85.1163
2019-04-29T07:54:27.310Z,84.8936
2019-04-29T07:55:30.875Z,84.6769
2019-04-29T07:56:37.910Z,83.9719
2019-04-29T07:57:43.306Z,83.3585
2019-04-29T07:58:48.562Z,83.8041
2019-04-29T07:59:51.325Z,83.5279
2019-04-29T08:00:56.237Z,84.3946
2019-04-29T08:01:59.885Z,85.4109
2019-04-29T08:03:04.345Z,83.6896
2019-04-29T08:04:07.287Z,83.9582
2019-04-29T08:05:10.330Z,84.6540
2019-04-29T08:06:13.291Z,85.8763
2019-04-29T08:07:16.309Z,85.1225
2019-04-29T08:08:21.332Z,86.6651
2019-04-29T08:09:25.328Z,85.0202
2019-04-29T08:10:29.744Z,85.6016
2019-04-29T08:11:33.301Z,84.3427
2019-04-29T08:12:36.313Z,84.0421
2019-04-29T08:13:39.285Z,85.6489
2019-04-29T08:14:42.298Z,85.3498
2019-04-29T08:15:45.310Z,85.2598
2019-04-29T08:16:48.321Z,85.2369
2019-04-29T08:17:55.493Z,86.0044
2019-04-29T08:18:59.296Z,84.0742
2019-04-29T08:20:05.163Z,83.8163
2019-04-29T08:21:10.273Z,84.2115
2019-04-29T08:22:18.364Z,85.2766
2019-04-29T08:23:21.315Z,84.8066
2019-04-29T08:24:23.323Z,84.7013
2019-04-29T08:25:27.181Z,84.3015
2019-04-29T08:26:33.657Z,84.8295
2019-04-29T08:27:40.621Z,83.8956
2019-04-29T08:28:44.344Z,84.9012
2019-04-29T08:29:47.287Z,84.7410
2019-04-29T08:30:50.316Z,84.6098
2019-04-29T08:31:57.365Z,83.5523
2019-04-29T08:33:01.349Z,83.8621
2019-04-29T08:34:04.323Z,84.3565
2019-04-29T08:35:07.309Z,84.5869
2019-04-29T08:36:10.308Z,83.7629
2019-04-29T08:37:12.303Z,84.2206
2019-04-29T08:38:15.371Z,84.0742
2019-04-29T08:39:18.299Z,83.8224
2019-04-29T08:40:21.352Z,82.0050
2019-04-29T08:41:28.563Z,83.1449
2019-04-29T08:42:32.311Z,82.8687
2019-04-29T08:43:35.295Z,82.5223
2019-04-29T08:44:38.296Z,83.6286
2019-04-29T08:45:41.331Z,82.7649
2019-04-29T08:46:51.375Z,82.0218
2019-04-29T08:47:52.350Z,81.6236
2019-04-29T08:48:55.337Z,79.3729
2019-04-29T08:49:58.342Z,81.4832
2019-04-29T08:51:01.300Z,80.0443
2019-04-29T08:52:04.323Z,79.4080
2019-04-29T08:53:06.351Z,80.3800
2019-04-29T08:54:09.357Z,78.5794
2019-04-29T08:55:12.341Z,76.9650
2019-04-29T08:56:15.283Z,75.8572
2019-04-29T08:57:18.365Z,76.5194
2019-04-29T08:58:21.315Z,75.5596
2019-04-29T08:59:24.902Z,76.7636
2019-04-29T09:00:29.273Z,73.6065
2019-04-29T09:01:34.095Z,75.0973
2019-04-29T09:02:41.438Z,70.0832
2019-04-29T09:03:47.333Z,69.7032
2019-04-29T09:04:53.819Z,71.5465
2019-04-29T09:06:05.038Z,71.1025
2019-04-29T09:07:12.513Z,70.9941
2019-04-29T09:08:13.669Z,70.5898
2019-04-29T09:09:28.404Z,63.6820
2019-04-29T09:10:25.334Z,62.2141
2019-04-29T09:11:28.358Z,61.5137
2019-04-29T09:12:31.320Z,62.0478
2019-04-29T09:13:36.400Z,59.4110
2019-04-29T09:14:39.280Z,66.0136
2019-04-29T09:15:42.354Z,67.7058
2019-04-29T09:16:45.320Z,66.7598
2019-04-29T09:17:48.356Z,68.3558
2019-04-29T09:18:51.325Z,70.8476
2019-04-29T09:19:54.339Z,65.2079
2019-04-29T09:20:57.301Z,66.7170
2019-04-29T09:22:00.318Z,67.4189
2019-04-29T09:23:03.392Z,69.2851
2019-04-29T09:24:06.319Z,69.7627
2019-04-29T09:25:09.326Z,72.2622
2019-04-29T09:26:12.330Z,71.2093
2019-04-29T09:27:15.315Z,68.0674
2019-04-29T09:28:27.024Z,70.1656
2019-04-29T09:29:26.337Z,70.7546
2019-04-29T09:30:29.286Z,70.4402
2019-04-29T09:31:32.325Z,70.7332
2019-04-29T09:32:38.236Z,71.7403
2019-04-29T09:33:44.274Z,71.8456
2019-04-29T09:34:51.349Z,72.1065
2019-04-29T09:35:54.275Z,71.4199
2019-04-29T09:36:57.339Z,71.6655
2019-04-29T09:38:00.284Z,72.2103
2019-04-29T09:39:03.333Z,72.0684
2019-04-29T09:40:06.298Z,74.6777
2019-04-29T09:41:09.311Z,74.3175
2019-04-29T09:42:13.195Z,74.7234
2019-04-29T09:43:21.368Z,74.5830
2019-04-29T09:44:26.385Z,73.9086
2019-04-29T09:45:29.291Z,72.7199
2019-04-29T09:46:34.465Z,71.8959
2019-04-29T09:47:38.290Z,72.5643
2019-04-29T09:48:40.323Z,72.9259
2019-04-29T09:49:43.315Z,72.0607
2019-04-29T09:50:46.322Z,68.3833
2019-04-29T09:51:49.363Z,66.0960
2019-04-29T09:52:52.336Z,65.1652
2019-04-29T09:53:55.335Z,62.8992
2019-04-29T09:54:59.523Z,63.7888
2019-04-29T09:56:06.299Z,63.7598
2019-04-29T09:57:09.302Z,64.1917
2019-04-29T09:58:12.314Z,66.5629
2019-04-29T09:59:15.310Z,66.9520
2019-04-29T10:00:18.304Z,65.8701
2019-04-29T10:01:21.304Z,67.2450
2019-04-29T10:02:26.357Z,67.8904
2019-04-29T10:03:32.298Z,69.1936
2019-04-29T10:04:35.310Z,69.7581
2019-04-29T10:05:38.314Z,70.0404
2019-04-29T10:06:41.337Z,69.3462
2019-04-29T10:07:46.373Z,68.8746
2019-04-29T10:08:50.369Z,68.7038
2019-04-29T10:09:57.305Z,68.5725
2019-04-29T10:11:00.319Z,67.6051
2019-04-29T10:12:03.312Z,66.9978
2019-04-29T10:13:06.299Z,66.6392
2019-04-29T10:14:09.341Z,66.0090
2019-04-29T10:15:12.296Z,65.5421
2019-04-29T10:16:15.349Z,66.6712
2019-04-29T10:17:18.335Z,67.4281
2019-04-29T10:18:25.159Z,66.4897
2019-04-29T10:19:29.352Z,67.8676
2019-04-29T10:20:32.300Z,66.7872
2019-04-29T10:21:35.365Z,68.0598
2019-04-29T10:22:38.295Z,68.4108
2019-04-29T10:23:41.318Z,67.9591
2019-04-29T10:24:44.297Z,68.1926
2019-04-29T10:25:47.302Z,67.8264
2019-04-29T10:26:50.396Z,66.3600
2019-04-29T10:27:53.298Z,65.1606
2019-04-29T10:28:56.339Z,64.6448
2019-04-29T10:29:59.322Z,63.1525
2019-04-29T10:31:02.357Z,62.2675
2019-04-29T10:32:06.847Z,64.0314
2019-04-29T10:33:12.862Z,64.2176
2019-04-29T10:34:19.309Z,62.9999
2019-04-29T10:35:22.311Z,65.4414
2019-04-29T10:36:26.262Z,65.5238
2019-04-29T10:37:31.460Z,64.9744
2019-04-29T10:38:40.228Z,63.8972
2019-04-29T10:39:43.306Z,64.9592
2019-04-29T10:40:46.390Z,66.3233
2019-04-29T10:41:49.323Z,65.9663
2019-04-29T10:42:52.368Z,67.1061
2019-04-29T10:43:55.599Z,66.5995
2019-04-29T10:44:59.334Z,66.6041
2019-04-29T10:46:02.307Z,66.3508
2019-04-29T10:47:05.326Z,65.7923
2019-04-29T10:48:08.338Z,65.4856
2019-04-29T10:49:11.349Z,65.0751
2019-04-29T10:50:15.552Z,63.8804
2019-04-29T10:51:23.305Z,66.5721
2019-04-29T10:52:28.324Z,67.6783
2019-04-29T10:53:31.340Z,63.6820
2019-04-29T10:54:34.285Z,64.1733
2019-04-29T10:55:37.295Z,64.2267
2019-04-29T10:56:41.074Z,63.6194
2019-04-29T10:57:44.864Z,63.3478
2019-04-29T10:58:52.382Z,64.3183
2019-04-29T10:59:55.298Z,63.0732
2019-04-29T11:00:58.472Z,63.2258
2019-04-29T11:02:05.092Z,64.0208
2019-04-29T11:03:09.305Z,63.9292
2019-04-29T11:04:12.391Z,63.4897
2019-04-29T11:05:15.331Z,63.5142
2019-04-29T11:06:18.314Z,62.4887
2019-04-29T11:07:26.509Z,64.3412
2019-04-29T11:08:29.372Z,64.9012
2019-04-29T11:09:32.301Z,64.6891
2019-04-29T11:10:35.341Z,65.9342
2019-04-29T11:11:38.276Z,65.3635
2019-04-29T11:12:41.320Z,63.6637
2019-04-29T11:13:48.393Z,65.2613
2019-04-29T11:14:52.305Z,65.3666
2019-04-29T11:15:55.326Z,65.5512
2019-04-29T11:16:58.311Z,65.1194
2019-04-29T11:18:03.516Z,66.2455
2019-04-29T11:19:07.333Z,65.0736
2019-04-29T11:20:11.132Z,64.1947
2019-04-29T11:21:18.284Z,63.8804
2019-04-29T11:22:21.344Z,63.1617
2019-04-29T11:23:24.303Z,62.0493
2019-04-29T11:24:27.355Z,61.0971
2019-04-29T11:25:30.327Z,61.6602
2019-04-29T11:26:33.256Z,59.7955
2019-04-29T11:27:36.346Z,59.0143
2019-04-29T11:28:39.298Z,56.8811
2019-04-29T11:29:44.427Z,58.7213
2019-04-29T11:30:49.554Z,58.9502
2019-04-29T11:31:54.149Z,61.4939
2019-04-29T11:33:00.115Z,59.4110
2019-04-29T11:34:05.501Z,58.9960
2019-04-29T11:35:08.363Z,57.4441
2019-04-29T11:36:11.321Z,59.9191
2019-04-29T11:37:17.923Z,57.2412
2019-04-29T11:38:22.316Z,58.3001
2019-04-29T11:39:25.334Z,60.4822
2019-04-29T11:40:42.756Z,61.1872
2019-04-29T11:41:36.320Z,60.6943
2019-04-29T11:42:41.680Z,61.6922
2019-04-29T11:43:46.600Z,62.0996
2019-04-29T11:44:57.149Z,62.7863
2019-04-29T11:46:01.343Z,62.0386
2019-04-29T11:47:04.314Z,63.1296
2019-04-29T11:48:07.308Z,62.9877
2019-04-29T11:49:10.315Z,61.1475
2019-04-29T11:50:14.346Z,61.8875
2019-04-29T11:51:17.353Z,62.0478
2019-04-29T11:52:23.787Z,65.0431
2019-04-29T11:53:28.332Z,62.1942
2019-04-29T11:54:31.319Z,61.2802
2019-04-29T11:55:34.309Z,62.0615
2019-04-29T11:56:39.585Z,62.3590
2019-04-29T11:57:43.349Z,61.8296
2019-04-29T11:58:46.300Z,61.8921
2019-04-29T11:59:49.305Z,63.1571
2019-04-29T12:00:52.331Z,62.0523
2019-04-29T12:01:55.293Z,61.8433
2019-04-29T12:02:58.353Z,62.6535
2019-04-29T12:04:01.383Z,61.9074
2019-04-29T12:05:08.192Z,61.3794
2019-04-29T12:06:16.351Z,62.6673
2019-04-29T12:07:21.202Z,63.4943
2019-04-29T12:08:24.335Z,63.0518
2019-04-29T12:09:30.866Z,61.7823
2019-04-29T12:10:39.258Z,62.8717
2019-04-29T12:11:43.359Z,63.8560
2019-04-29T12:12:47.717Z,63.4867
2019-04-29T12:13:52.313Z,62.9496
2019-04-29T12:14:55.301Z,63.3265
2019-04-29T12:15:59.338Z,63.4546
2019-04-29T12:17:02.393Z,63.7659
2019-04-29T12:18:05.283Z,63.5416
2019-04-29T12:19:08.314Z,63.5737
2019-04-29T12:20:10.352Z,63.2197
2019-04-29T12:21:13.310Z,62.7817
2019-04-29T12:22:28.190Z,63.7598
2019-04-29T12:23:24.331Z,63.0869
2019-04-29T12:24:26.330Z,62.3606
2019-04-29T12:25:29.413Z,63.3722
2019-04-29T12:26:35.012Z,64.3244
2019-04-29T12:27:40.336Z,64.5441
2019-04-29T12:28:44.525Z,62.5620
2019-04-29T12:29:48.737Z,62.8214
2019-04-29T12:30:55.345Z,63.4394
2019-04-29T12:31:58.326Z,63.1830
2019-04-29T12:33:03.115Z,64.6799
2019-04-29T12:34:06.278Z,64.8493
2019-04-29T12:35:09.346Z,64.4831
2019-04-29T12:36:12.291Z,62.7634
2019-04-29T12:37:15.284Z,63.9261
2019-04-29T12:38:18.369Z,63.3249
2019-04-29T12:39:42.264Z,63.6912
2019-04-29T12:40:29.282Z,62.8458
2019-04-29T12:41:32.418Z,64.9058
2019-04-29T12:42:35.719Z,63.1876
2019-04-29T12:43:43.354Z,62.0172
2019-04-29T12:44:46.382Z,62.2171
2019-04-29T12:45:49.334Z,63.1571
2019-04-29T12:46:52.322Z,63.5447
2019-04-29T12:47:55.335Z,64.6113
2019-04-29T12:48:58.339Z,62.7863